Terminal Aerodrome Forecast
Issued by NWS

Home | Current Version | Previous Version | Graphics & Text | Print | Product List | Glossary On
Versions: 1 2 3 4 5 6 7 8 9 10 11 12 13 14 15
000
FTUS43 KGRB 311100
TAFMTW
TAF
KMTW 311120Z 3112/0112 26005KT P6SM SCT100
     FM311800 16008KT P6SM SCT040 SCT080
     FM010200 VRB03KT P6SM SCT080=

USA.gov is the U.S. government's official web portal to all federal, state and local government web resources and services.